Elliott, South Carolina
Current Conditions -  °F | °C
As of 8:55 PM on Friday 31 Oct 2014 (Local Time) from KSMS Reporting Station
Broken Clouds Broken Clouds  
Wind Chill: 54°   Ceiling: 6000
Heat Index: 54°   Visibility: 9mi
Dew Point: 54°   Wind: 0mph
Humidity: 100%   Direction: NA
Pressure: 29.79"   Gusts: NA
Location:  34.11°N, 80.16°W
Report Text: KSMS 010055Z AUTO 00000KT 9SM BKN060 BKN085 12/12 A2979 RMK AO2 LTG DSNT N AND SW
Loading
Personal Weather Stations






























Interactive Weather Map
Tropical Storm Tracking
New forecast layout! Learn more

10-Day Weather Forecast

Advertisements
Track Severe Weather on mobile